sensor_id;sensor_type;location;lat;lon;timestamp;P1;durP1;ratioP1;P2;durP2;ratioP2
19816;SDS011;68323;49.394;8.434;2023-04-29T00:01:06;11.00;;;9.40;;
19816;SDS011;68323;49.394;8.434;2023-04-29T00:03:31;13.43;;;9.40;;
19816;SDS011;68323;49.394;8.434;2023-04-29T00:05:57;12.77;;;9.40;;
19816;SDS011;68323;49.394;8.434;2023-04-29T00:08:24;12.67;;;9.60;;
19816;SDS011;68323;49.394;8.434;2023-04-29T00:10:49;13.53;;;10.23;;
19816;SDS011;68323;49.394;8.434;2023-04-29T00:13:15;14.47;;;9.73;;
19816;SDS011;68323;49.394;8.434;2023-04-29T00:15:41;12.00;;;9.17;;
19816;SDS011;68323;49.394;8.434;2023-04-29T00:18:07;14.77;;;9.60;;
19816;SDS011;68323;49.394;8.434;2023-04-29T00:20:33;12.63;;;9.30;;
19816;SDS011;68323;49.394;8.434;2023-04-29T00:22:59;12.30;;;8.93;;
19816;SDS011;68323;49.394;8.434;2023-04-29T00:25:25;12.97;;;8.90;;
19816;SDS011;68323;49.394;8.434;2023-04-29T00:27:50;12.23;;;8.70;;
19816;SDS011;68323;49.394;8.434;2023-04-29T00:30:16;11.47;;;8.23;;
19816;SDS011;68323;49.394;8.434;2023-04-29T00:32:42;10.27;;;7.83;;
19816;SDS011;68323;49.394;8.434;2023-04-29T00:35:08;12.27;;;8.77;;
19816;SDS011;68323;49.394;8.434;2023-04-29T00:37:34;10.60;;;8.20;;
19816;SDS011;68323;49.394;8.434;2023-04-29T00:40:00;8.50;;;7.60;;
19816;SDS011;68323;49.394;8.434;2023-04-29T00:42:26;12.97;;;8.20;;
19816;SDS011;68323;49.394;8.434;2023-04-29T00:44:51;9.70;;;8.13;;
19816;SDS011;68323;49.394;8.434;2023-04-29T00:47:17;8.30;;;7.47;;
19816;SDS011;68323;49.394;8.434;2023-04-29T00:49:43;8.77;;;7.60;;
19816;SDS011;68323;49.394;8.434;2023-04-29T00:52:09;10.47;;;8.00;;
19816;SDS011;68323;49.394;8.434;2023-04-29T00:54:36;9.30;;;7.93;;
19816;SDS011;68323;49.394;8.434;2023-04-29T00:57:03;10.70;;;7.97;;
19816;SDS011;68323;49.394;8.434;2023-04-29T00:59:30;9.93;;;8.57;;
19816;SDS011;68323;49.394;8.434;2023-04-29T01:02:00;8.90;;;7.47;;
19816;SDS011;68323;49.394;8.434;2023-04-29T01:04:27;11.03;;;7.87;;
19816;SDS011;68323;49.394;8.434;2023-04-29T01:14:47;9.70;;;8.00;;
19816;SDS011;68323;49.394;8.434;2023-04-29T01:17:18;11.20;;;8.10;;
19816;SDS011;68323;49.394;8.434;2023-04-29T01:19:51;9.90;;;8.30;;
19816;SDS011;68323;49.394;8.434;2023-04-29T01:22:21;10.07;;;8.27;;
19816;SDS011;68323;49.394;8.434;2023-04-29T01:24:47;10.77;;;8.57;;
19816;SDS011;68323;49.394;8.434;2023-04-29T01:27:29;12.67;;;8.67;;
19816;SDS011;68323;49.394;8.434;2023-04-29T01:29:59;11.53;;;8.93;;
19816;SDS011;68323;49.394;8.434;2023-04-29T01:32:40;9.43;;;8.53;;
19816;SDS011;68323;49.394;8.434;2023-04-29T01:39:01;11.67;;;8.70;;
19816;SDS011;68323;49.394;8.434;2023-04-29T01:43:31;10.43;;;9.20;;
19816;SDS011;68323;49.394;8.434;2023-04-29T01:45:58;11.40;;;9.27;;
19816;SDS011;68323;49.394;8.434;2023-04-29T01:48:25;12.13;;;9.60;;
19816;SDS011;68323;49.394;8.434;2023-04-29T01:50:51;12.50;;;10.40;;
19816;SDS011;68323;49.394;8.434;2023-04-29T01:53:16;14.17;;;10.57;;
19816;SDS011;68323;49.394;8.434;2023-04-29T01:55:42;13.37;;;10.13;;
19816;SDS011;68323;49.394;8.434;2023-04-29T01:58:08;14.20;;;10.30;;
19816;SDS011;68323;49.394;8.434;2023-04-29T02:00:34;16.03;;;11.70;;
19816;SDS011;68323;49.394;8.434;2023-04-29T02:03:02;14.27;;;11.67;;
19816;SDS011;68323;49.394;8.434;2023-04-29T02:05:27;14.90;;;11.10;;
19816;SDS011;68323;49.394;8.434;2023-04-29T02:07:56;13.63;;;10.70;;
19816;SDS011;68323;49.394;8.434;2023-04-29T02:10:21;16.73;;;11.83;;
19816;SDS011;68323;49.394;8.434;2023-04-29T02:12:47;13.73;;;11.60;;
19816;SDS011;68323;49.394;8.434;2023-04-29T02:15:12;16.37;;;11.90;;
19816;SDS011;68323;49.394;8.434;2023-04-29T02:17:38;13.00;;;11.03;;
19816;SDS011;68323;49.394;8.434;2023-04-29T02:20:03;14.20;;;10.83;;
19816;SDS011;68323;49.394;8.434;2023-04-29T02:22:29;17.47;;;11.07;;
19816;SDS011;68323;49.394;8.434;2023-04-29T02:24:55;14.70;;;10.50;;
19816;SDS011;68323;49.394;8.434;2023-04-29T02:27:22;16.63;;;11.00;;
19816;SDS011;68323;49.394;8.434;2023-04-29T02:29:47;13.77;;;11.63;;
19816;SDS011;68323;49.394;8.434;2023-04-29T02:32:13;14.77;;;11.73;;
19816;SDS011;68323;49.394;8.434;2023-04-29T02:34:39;17.43;;;11.93;;
19816;SDS011;68323;49.394;8.434;2023-04-29T02:37:05;15.37;;;11.27;;
19816;SDS011;68323;49.394;8.434;2023-04-29T02:39:31;16.90;;;11.70;;
19816;SDS011;68323;49.394;8.434;2023-04-29T02:41:56;14.43;;;11.63;;
19816;SDS011;68323;49.394;8.434;2023-04-29T02:44:22;16.53;;;11.73;;
19816;SDS011;68323;49.394;8.434;2023-04-29T02:46:48;10.73;;;8.67;;
19816;SDS011;68323;49.394;8.434;2023-04-29T02:49:13;9.03;;;6.77;;
19816;SDS011;68323;49.394;8.434;2023-04-29T02:51:39;9.37;;;6.97;;
19816;SDS011;68323;49.394;8.434;2023-04-29T02:54:05;8.00;;;6.47;;
19816;SDS011;68323;49.394;8.434;2023-04-29T02:56:30;5.63;;;4.93;;
19816;SDS011;68323;49.394;8.434;2023-04-29T02:58:56;7.73;;;4.63;;
19816;SDS011;68323;49.394;8.434;2023-04-29T03:01:21;5.00;;;3.83;;
19816;SDS011;68323;49.394;8.434;2023-04-29T03:03:48;5.27;;;4.10;;
19816;SDS011;68323;49.394;8.434;2023-04-29T03:06:13;4.10;;;3.67;;
19816;SDS011;68323;49.394;8.434;2023-04-29T03:08:39;5.77;;;3.93;;
19816;SDS011;68323;49.394;8.434;2023-04-29T03:11:05;7.93;;;4.23;;
19816;SDS011;68323;49.394;8.434;2023-04-29T03:13:31;5.13;;;4.47;;
19816;SDS011;68323;49.394;8.434;2023-04-29T03:15:56;6.80;;;4.57;;
19816;SDS011;68323;49.394;8.434;2023-04-29T03:18:23;5.03;;;4.53;;
19816;SDS011;68323;49.394;8.434;2023-04-29T03:20:49;6.53;;;4.23;;
19816;SDS011;68323;49.394;8.434;2023-04-29T03:23:14;7.40;;;4.90;;
19816;SDS011;68323;49.394;8.434;2023-04-29T03:25:40;7.47;;;4.80;;
19816;SDS011;68323;49.394;8.434;2023-04-29T03:28:05;7.90;;;5.10;;
19816;SDS011;68323;49.394;8.434;2023-04-29T03:30:31;6.07;;;5.07;;
19816;SDS011;68323;49.394;8.434;2023-04-29T03:32:57;5.53;;;4.70;;
19816;SDS011;68323;49.394;8.434;2023-04-29T03:35:22;6.93;;;5.20;;
19816;SDS011;68323;49.394;8.434;2023-04-29T03:37:48;5.93;;;4.50;;
19816;SDS011;68323;49.394;8.434;2023-04-29T03:40:14;4.87;;;4.47;;
19816;SDS011;68323;49.394;8.434;2023-04-29T03:42:39;6.80;;;4.93;;
19816;SDS011;68323;49.394;8.434;2023-04-29T03:45:05;5.40;;;4.60;;
19816;SDS011;68323;49.394;8.434;2023-04-29T03:47:31;8.70;;;5.10;;
19816;SDS011;68323;49.394;8.434;2023-04-29T03:49:57;7.20;;;4.63;;
19816;SDS011;68323;49.394;8.434;2023-04-29T03:52:22;4.47;;;4.07;;
19816;SDS011;68323;49.394;8.434;2023-04-29T03:54:48;5.20;;;4.07;;
19816;SDS011;68323;49.394;8.434;2023-04-29T03:57:13;4.93;;;3.87;;
19816;SDS011;68323;49.394;8.434;2023-04-29T03:59:39;6.40;;;3.87;;
19816;SDS011;68323;49.394;8.434;2023-04-29T04:02:05;3.97;;;3.53;;
19816;SDS011;68323;49.394;8.434;2023-04-29T04:04:30;3.70;;;3.40;;
19816;SDS011;68323;49.394;8.434;2023-04-29T04:06:56;5.13;;;3.70;;
19816;SDS011;68323;49.394;8.434;2023-04-29T04:09:21;5.00;;;3.60;;
19816;SDS011;68323;49.394;8.434;2023-04-29T04:11:47;5.57;;;3.77;;
19816;SDS011;68323;49.394;8.434;2023-04-29T04:14:12;5.30;;;3.87;;
19816;SDS011;68323;49.394;8.434;2023-04-29T04:16:38;4.60;;;3.80;;
19816;SDS011;68323;49.394;8.434;2023-04-29T04:19:03;6.67;;;3.53;;
19816;SDS011;68323;49.394;8.434;2023-04-29T04:21:29;4.50;;;3.00;;
19816;SDS011;68323;49.394;8.434;2023-04-29T04:23:55;4.03;;;3.37;;
19816;SDS011;68323;49.394;8.434;2023-04-29T04:26:21;5.10;;;4.40;;
19816;SDS011;68323;49.394;8.434;2023-04-29T04:28:47;5.27;;;3.60;;
19816;SDS011;68323;49.394;8.434;2023-04-29T04:31:12;3.80;;;3.40;;
19816;SDS011;68323;49.394;8.434;2023-04-29T04:33:38;4.63;;;3.00;;
19816;SDS011;68323;49.394;8.434;2023-04-29T04:36:05;3.93;;;3.50;;
19816;SDS011;68323;49.394;8.434;2023-04-29T04:38:30;6.90;;;6.20;;
19816;SDS011;68323;49.394;8.434;2023-04-29T04:40:56;5.40;;;4.90;;
19816;SDS011;68323;49.394;8.434;2023-04-29T04:43:22;5.10;;;4.63;;
19816;SDS011;68323;49.394;8.434;2023-04-29T04:45:48;6.13;;;4.23;;
19816;SDS011;68323;49.394;8.434;2023-04-29T04:48:13;5.77;;;3.43;;
19816;SDS011;68323;49.394;8.434;2023-04-29T04:50:39;3.47;;;3.17;;
19816;SDS011;68323;49.394;8.434;2023-04-29T04:53:04;4.90;;;3.13;;
19816;SDS011;68323;49.394;8.434;2023-04-29T04:55:30;4.77;;;3.10;;
19816;SDS011;68323;49.394;8.434;2023-04-29T04:57:57;8.80;;;6.07;;
19816;SDS011;68323;49.394;8.434;2023-04-29T05:00:23;10.83;;;6.83;;
19816;SDS011;68323;49.394;8.434;2023-04-29T05:02:48;8.30;;;5.47;;
19816;SDS011;68323;49.394;8.434;2023-04-29T05:05:14;4.93;;;3.50;;
19816;SDS011;68323;49.394;8.434;2023-04-29T05:07:39;4.97;;;3.10;;
19816;SDS011;68323;49.394;8.434;2023-04-29T05:10:05;4.27;;;3.17;;
19816;SDS011;68323;49.394;8.434;2023-04-29T05:12:32;7.67;;;3.03;;
19816;SDS011;68323;49.394;8.434;2023-04-29T05:14:59;3.77;;;2.63;;
19816;SDS011;68323;49.394;8.434;2023-04-29T05:17:25;2.97;;;2.70;;
19816;SDS011;68323;49.394;8.434;2023-04-29T05:19:50;4.07;;;2.80;;
19816;SDS011;68323;49.394;8.434;2023-04-29T05:22:16;3.67;;;2.43;;
19816;SDS011;68323;49.394;8.434;2023-04-29T05:24:42;2.53;;;2.33;;
19816;SDS011;68323;49.394;8.434;2023-04-29T05:27:07;401.60;;;14.90;;
19816;SDS011;68323;49.394;8.434;2023-04-29T05:29:33;63.77;;;4.80;;
19816;SDS011;68323;49.394;8.434;2023-04-29T05:31:58;2.90;;;2.60;;
19816;SDS011;68323;49.394;8.434;2023-04-29T05:34:24;6.83;;;2.80;;
19816;SDS011;68323;49.394;8.434;2023-04-29T05:36:49;3.73;;;2.27;;
19816;SDS011;68323;49.394;8.434;2023-04-29T05:39:15;514.97;;;19.13;;
19816;SDS011;68323;49.394;8.434;2023-04-29T05:41:41;317.57;;;12.50;;
19816;SDS011;68323;49.394;8.434;2023-04-29T05:44:07;205.90;;;8.97;;
19816;SDS011;68323;49.394;8.434;2023-04-29T05:46:32;194.93;;;8.00;;
19816;SDS011;68323;49.394;8.434;2023-04-29T05:48:58;30.53;;;3.33;;
19816;SDS011;68323;49.394;8.434;2023-04-29T05:51:23;8.60;;;2.63;;
19816;SDS011;68323;49.394;8.434;2023-04-29T05:53:50;6.43;;;2.57;;
19816;SDS011;68323;49.394;8.434;2023-04-29T05:56:15;3.77;;;2.63;;
19816;SDS011;68323;49.394;8.434;2023-04-29T05:58:43;3.43;;;2.90;;
19816;SDS011;68323;49.394;8.434;2023-04-29T06:01:08;4.30;;;2.80;;
19816;SDS011;68323;49.394;8.434;2023-04-29T06:03:34;4.07;;;2.67;;
19816;SDS011;68323;49.394;8.434;2023-04-29T06:05:59;3.73;;;2.73;;
19816;SDS011;68323;49.394;8.434;2023-04-29T06:08:25;7.63;;;3.33;;
19816;SDS011;68323;49.394;8.434;2023-04-29T06:10:51;2.87;;;2.67;;
19816;SDS011;68323;49.394;8.434;2023-04-29T06:13:16;3.80;;;3.00;;
19816;SDS011;68323;49.394;8.434;2023-04-29T06:15:42;4.93;;;2.60;;
19816;SDS011;68323;49.394;8.434;2023-04-29T06:18:08;5.07;;;3.00;;
19816;SDS011;68323;49.394;8.434;2023-04-29T06:20:34;3.00;;;2.60;;
19816;SDS011;68323;49.394;8.434;2023-04-29T06:22:59;2.70;;;2.50;;
19816;SDS011;68323;49.394;8.434;2023-04-29T06:25:25;4.90;;;2.67;;
19816;SDS011;68323;49.394;8.434;2023-04-29T06:27:51;3.43;;;2.67;;
19816;SDS011;68323;49.394;8.434;2023-04-29T06:30:16;3.00;;;2.70;;
19816;SDS011;68323;49.394;8.434;2023-04-29T06:32:42;2.63;;;2.37;;
19816;SDS011;68323;49.394;8.434;2023-04-29T06:35:07;8.40;;;2.30;;
19816;SDS011;68323;49.394;8.434;2023-04-29T06:37:33;2.80;;;2.50;;
19816;SDS011;68323;49.394;8.434;2023-04-29T06:39:59;3.17;;;2.47;;
19816;SDS011;68323;49.394;8.434;2023-04-29T06:42:24;2.33;;;2.03;;
19816;SDS011;68323;49.394;8.434;2023-04-29T06:44:50;16.67;;;3.30;;
19816;SDS011;68323;49.394;8.434;2023-04-29T06:47:15;4.13;;;3.10;;
19816;SDS011;68323;49.394;8.434;2023-04-29T06:49:41;3.23;;;2.83;;
19816;SDS011;68323;49.394;8.434;2023-04-29T06:52:07;4.20;;;2.90;;
19816;SDS011;68323;49.394;8.434;2023-04-29T06:54:33;4.17;;;2.60;;
19816;SDS011;68323;49.394;8.434;2023-04-29T06:56:59;3.40;;;3.07;;
19816;SDS011;68323;49.394;8.434;2023-04-29T06:59:24;3.77;;;3.40;;
19816;SDS011;68323;49.394;8.434;2023-04-29T07:01:50;3.50;;;3.03;;
19816;SDS011;68323;49.394;8.434;2023-04-29T07:04:16;3.23;;;2.93;;
19816;SDS011;68323;49.394;8.434;2023-04-29T07:06:41;6.63;;;3.33;;
19816;SDS011;68323;49.394;8.434;2023-04-29T07:09:10;6.23;;;3.40;;
19816;SDS011;68323;49.394;8.434;2023-04-29T07:11:37;5.10;;;3.20;;
19816;SDS011;68323;49.394;8.434;2023-04-29T07:14:03;4.53;;;3.10;;
19816;SDS011;68323;49.394;8.434;2023-04-29T07:16:29;4.90;;;3.47;;
19816;SDS011;68323;49.394;8.434;2023-04-29T07:18:54;6.03;;;3.83;;
19816;SDS011;68323;49.394;8.434;2023-04-29T07:21:20;6.33;;;4.60;;
19816;SDS011;68323;49.394;8.434;2023-04-29T07:23:46;8.97;;;6.20;;
19816;SDS011;68323;49.394;8.434;2023-04-29T07:26:12;11.70;;;8.33;;
19816;SDS011;68323;49.394;8.434;2023-04-29T07:28:39;14.80;;;9.93;;
19816;SDS011;68323;49.394;8.434;2023-04-29T07:31:05;13.97;;;11.23;;
19816;SDS011;68323;49.394;8.434;2023-04-29T07:33:32;19.50;;;12.17;;
19816;SDS011;68323;49.394;8.434;2023-04-29T07:35:58;15.50;;;12.80;;
19816;SDS011;68323;49.394;8.434;2023-04-29T07:38:24;15.93;;;12.57;;
19816;SDS011;68323;49.394;8.434;2023-04-29T07:40:50;15.97;;;13.13;;
19816;SDS011;68323;49.394;8.434;2023-04-29T07:43:15;15.73;;;12.03;;
19816;SDS011;68323;49.394;8.434;2023-04-29T07:45:41;18.30;;;12.83;;
19816;SDS011;68323;49.394;8.434;2023-04-29T07:48:07;16.27;;;13.37;;
19816;SDS011;68323;49.394;8.434;2023-04-29T07:50:35;15.00;;;11.20;;
19816;SDS011;68323;49.394;8.434;2023-04-29T07:53:01;16.63;;;11.17;;
19816;SDS011;68323;49.394;8.434;2023-04-29T07:55:27;17.67;;;11.23;;
19816;SDS011;68323;49.394;8.434;2023-04-29T07:57:56;15.27;;;10.83;;
19816;SDS011;68323;49.394;8.434;2023-04-29T08:00:22;16.00;;;11.87;;
19816;SDS011;68323;49.394;8.434;2023-04-29T08:02:51;22.77;;;11.93;;
19816;SDS011;68323;49.394;8.434;2023-04-29T08:05:17;18.43;;;12.00;;
19816;SDS011;68323;49.394;8.434;2023-04-29T08:07:45;14.53;;;11.50;;
19816;SDS011;68323;49.394;8.434;2023-04-29T08:10:11;14.80;;;11.07;;
19816;SDS011;68323;49.394;8.434;2023-04-29T08:12:36;16.70;;;12.13;;
19816;SDS011;68323;49.394;8.434;2023-04-29T08:15:02;15.97;;;11.57;;
19816;SDS011;68323;49.394;8.434;2023-04-29T08:17:28;16.27;;;11.67;;
19816;SDS011;68323;49.394;8.434;2023-04-29T08:19:53;14.90;;;10.70;;
19816;SDS011;68323;49.394;8.434;2023-04-29T08:22:19;15.90;;;11.80;;
19816;SDS011;68323;49.394;8.434;2023-04-29T08:24:44;16.07;;;11.50;;
19816;SDS011;68323;49.394;8.434;2023-04-29T08:27:10;15.23;;;11.13;;
19816;SDS011;68323;49.394;8.434;2023-04-29T08:29:36;15.33;;;11.30;;
19816;SDS011;68323;49.394;8.434;2023-04-29T08:32:01;14.27;;;11.27;;
19816;SDS011;68323;49.394;8.434;2023-04-29T08:34:27;15.27;;;10.70;;
19816;SDS011;68323;49.394;8.434;2023-04-29T08:36:53;16.37;;;10.53;;
19816;SDS011;68323;49.394;8.434;2023-04-29T08:39:18;17.30;;;11.60;;
19816;SDS011;68323;49.394;8.434;2023-04-29T08:41:44;15.43;;;10.67;;
19816;SDS011;68323;49.394;8.434;2023-04-29T08:44:15;16.63;;;10.90;;
19816;SDS011;68323;49.394;8.434;2023-04-29T08:46:41;14.50;;;10.67;;
19816;SDS011;68323;49.394;8.434;2023-04-29T08:49:09;12.93;;;10.37;;
19816;SDS011;68323;49.394;8.434;2023-04-29T08:51:35;14.50;;;10.87;;
19816;SDS011;68323;49.394;8.434;2023-04-29T08:54:00;14.63;;;10.70;;
19816;SDS011;68323;49.394;8.434;2023-04-29T08:56:26;48.57;;;12.70;;
19816;SDS011;68323;49.394;8.434;2023-04-29T08:58:54;13.33;;;10.67;;
19816;SDS011;68323;49.394;8.434;2023-04-29T09:01:22;16.57;;;12.17;;
19816;SDS011;68323;49.394;8.434;2023-04-29T09:06:20;17.13;;;11.93;;
19816;SDS011;68323;49.394;8.434;2023-04-29T09:08:46;15.70;;;12.07;;
19816;SDS011;68323;49.394;8.434;2023-04-29T09:11:12;14.33;;;10.63;;
19816;SDS011;68323;49.394;8.434;2023-04-29T09:13:39;15.30;;;11.00;;
19816;SDS011;68323;49.394;8.434;2023-04-29T09:16:09;13.87;;;10.73;;
19816;SDS011;68323;49.394;8.434;2023-04-29T09:21:15;12.83;;;9.77;;
19816;SDS011;68323;49.394;8.434;2023-04-29T09:23:45;12.90;;;9.67;;
19816;SDS011;68323;49.394;8.434;2023-04-29T09:26:12;11.17;;;8.57;;
19816;SDS011;68323;49.394;8.434;2023-04-29T09:28:39;9.53;;;7.83;;
19816;SDS011;68323;49.394;8.434;2023-04-29T09:31:07;8.97;;;7.30;;
19816;SDS011;68323;49.394;8.434;2023-04-29T09:39:06;27.63;;;7.13;;
19816;SDS011;68323;49.394;8.434;2023-04-29T09:44:16;7.00;;;6.07;;
19816;SDS011;68323;49.394;8.434;2023-04-29T09:47:05;7.77;;;5.87;;
19816;SDS011;68323;49.394;8.434;2023-04-29T09:49:34;10.40;;;6.27;;
19816;SDS011;68323;49.394;8.434;2023-04-29T09:52:09;10.17;;;6.47;;
19816;SDS011;68323;49.394;8.434;2023-04-29T09:54:41;8.00;;;6.23;;
19816;SDS011;68323;49.394;8.434;2023-04-29T09:57:08;9.27;;;7.03;;
19816;SDS011;68323;49.394;8.434;2023-04-29T09:59:37;9.67;;;7.60;;
19816;SDS011;68323;49.394;8.434;2023-04-29T10:02:16;10.07;;;7.70;;
19816;SDS011;68323;49.394;8.434;2023-04-29T10:04:48;9.93;;;7.50;;
19816;SDS011;68323;49.394;8.434;2023-04-29T10:07:21;9.60;;;7.00;;
19816;SDS011;68323;49.394;8.434;2023-04-29T10:09:47;9.10;;;6.90;;
19816;SDS011;68323;49.394;8.434;2023-04-29T10:12:17;8.57;;;6.47;;
19816;SDS011;68323;49.394;8.434;2023-04-29T10:14:46;7.07;;;6.17;;
19816;SDS011;68323;49.394;8.434;2023-04-29T10:17:38;9.27;;;6.37;;
19816;SDS011;68323;49.394;8.434;2023-04-29T10:20:10;9.90;;;6.80;;
19816;SDS011;68323;49.394;8.434;2023-04-29T10:22:46;7.50;;;6.40;;
19816;SDS011;68323;49.394;8.434;2023-04-29T10:25:20;7.40;;;6.60;;
19816;SDS011;68323;49.394;8.434;2023-04-29T10:27:47;7.23;;;6.33;;
19816;SDS011;68323;49.394;8.434;2023-04-29T10:30:14;10.57;;;7.03;;
19816;SDS011;68323;49.394;8.434;2023-04-29T10:32:45;7.00;;;6.30;;
19816;SDS011;68323;49.394;8.434;2023-04-29T10:35:12;7.63;;;6.03;;
19816;SDS011;68323;49.394;8.434;2023-04-29T10:37:42;10.30;;;6.20;;
19816;SDS011;68323;49.394;8.434;2023-04-29T10:42:45;7.77;;;6.43;;
19816;SDS011;68323;49.394;8.434;2023-04-29T10:51:12;6.53;;;5.83;;
19816;SDS011;68323;49.394;8.434;2023-04-29T10:53:16;6.50;;;5.80;;
19816;SDS011;68323;49.394;8.434;2023-04-29T10:55:47;6.87;;;6.10;;
19816;SDS011;68323;49.394;8.434;2023-04-29T11:01:04;7.77;;;6.70;;
19816;SDS011;68323;49.394;8.434;2023-04-29T11:03:48;8.13;;;6.40;;
19816;SDS011;68323;49.394;8.434;2023-04-29T11:06:25;7.57;;;5.40;;
19816;SDS011;68323;49.394;8.434;2023-04-29T11:09:10;7.73;;;4.90;;
19816;SDS011;68323;49.394;8.434;2023-04-29T11:14:14;5.67;;;4.37;;
19816;SDS011;68323;49.394;8.434;2023-04-29T11:16:52;5.63;;;4.20;;
19816;SDS011;68323;49.394;8.434;2023-04-29T11:19:19;4.40;;;4.00;;
19816;SDS011;68323;49.394;8.434;2023-04-29T11:21:45;5.53;;;4.53;;
19816;SDS011;68323;49.394;8.434;2023-04-29T11:24:11;4.57;;;4.13;;
19816;SDS011;68323;49.394;8.434;2023-04-29T11:26:39;5.77;;;4.10;;
19816;SDS011;68323;49.394;8.434;2023-04-29T11:29:06;5.60;;;4.50;;
19816;SDS011;68323;49.394;8.434;2023-04-29T11:31:36;5.90;;;4.57;;
19816;SDS011;68323;49.394;8.434;2023-04-29T11:34:03;6.53;;;4.60;;
19816;SDS011;68323;49.394;8.434;2023-04-29T11:36:30;8.23;;;5.27;;
19816;SDS011;68323;49.394;8.434;2023-04-29T11:38:58;7.77;;;5.03;;
19816;SDS011;68323;49.394;8.434;2023-04-29T11:41:28;8.33;;;5.13;;
19816;SDS011;68323;49.394;8.434;2023-04-29T11:43:56;5.60;;;4.80;;
19816;SDS011;68323;49.394;8.434;2023-04-29T11:46:23;5.97;;;4.70;;
19816;SDS011;68323;49.394;8.434;2023-04-29T11:48:50;8.67;;;5.60;;
19816;SDS011;68323;49.394;8.434;2023-04-29T11:51:16;7.47;;;5.50;;
19816;SDS011;68323;49.394;8.434;2023-04-29T11:53:43;7.83;;;6.33;;
19816;SDS011;68323;49.394;8.434;2023-04-29T11:56:09;6.03;;;5.40;;
19816;SDS011;68323;49.394;8.434;2023-04-29T11:58:35;5.60;;;4.93;;
19816;SDS011;68323;49.394;8.434;2023-04-29T12:01:01;6.60;;;5.30;;
19816;SDS011;68323;49.394;8.434;2023-04-29T12:03:28;6.23;;;5.20;;
19816;SDS011;68323;49.394;8.434;2023-04-29T12:05:55;5.10;;;4.30;;
19816;SDS011;68323;49.394;8.434;2023-04-29T12:10:47;7.60;;;3.83;;
19816;SDS011;68323;49.394;8.434;2023-04-29T12:13:14;4.80;;;3.93;;
19816;SDS011;68323;49.394;8.434;2023-04-29T12:15:41;6.37;;;4.10;;
19816;SDS011;68323;49.394;8.434;2023-04-29T12:18:08;4.70;;;3.80;;
19816;SDS011;68323;49.394;8.434;2023-04-29T12:20:34;5.13;;;3.97;;
19816;SDS011;68323;49.394;8.434;2023-04-29T12:23:12;6.27;;;4.20;;
19816;SDS011;68323;49.394;8.434;2023-04-29T12:25:39;4.90;;;4.07;;
19816;SDS011;68323;49.394;8.434;2023-04-29T12:28:10;5.50;;;4.23;;
19816;SDS011;68323;49.394;8.434;2023-04-29T12:30:39;4.73;;;3.97;;
19816;SDS011;68323;49.394;8.434;2023-04-29T12:33:08;5.27;;;4.40;;
19816;SDS011;68323;49.394;8.434;2023-04-29T12:35:33;4.40;;;4.00;;
19816;SDS011;68323;49.394;8.434;2023-04-29T12:38:00;5.60;;;5.00;;
19816;SDS011;68323;49.394;8.434;2023-04-29T12:40:26;7.40;;;4.93;;
19816;SDS011;68323;49.394;8.434;2023-04-29T12:42:52;5.20;;;4.50;;
19816;SDS011;68323;49.394;8.434;2023-04-29T12:45:31;5.20;;;4.67;;
19816;SDS011;68323;49.394;8.434;2023-04-29T12:47:57;5.43;;;4.37;;
19816;SDS011;68323;49.394;8.434;2023-04-29T12:50:34;4.80;;;4.30;;
19816;SDS011;68323;49.394;8.434;2023-04-29T12:53:02;5.97;;;4.20;;
19816;SDS011;68323;49.394;8.434;2023-04-29T12:55:31;4.90;;;4.40;;
19816;SDS011;68323;49.394;8.434;2023-04-29T12:57:58;6.10;;;4.70;;
19816;SDS011;68323;49.394;8.434;2023-04-29T13:00:27;5.97;;;4.60;;
19816;SDS011;68323;49.394;8.434;2023-04-29T13:02:52;6.30;;;4.70;;
19816;SDS011;68323;49.394;8.434;2023-04-29T13:05:23;8.30;;;4.90;;
19816;SDS011;68323;49.394;8.434;2023-04-29T13:08:01;5.93;;;5.17;;
19816;SDS011;68323;49.394;8.434;2023-04-29T13:10:35;8.30;;;5.43;;
19816;SDS011;68323;49.394;8.434;2023-04-29T13:13:03;9.27;;;5.27;;
19816;SDS011;68323;49.394;8.434;2023-04-29T13:15:28;7.43;;;5.30;;
19816;SDS011;68323;49.394;8.434;2023-04-29T13:17:54;20.07;;;7.63;;
19816;SDS011;68323;49.394;8.434;2023-04-29T13:20:22;6.07;;;4.50;;
19816;SDS011;68323;49.394;8.434;2023-04-29T13:22:47;6.70;;;4.40;;
19816;SDS011;68323;49.394;8.434;2023-04-29T13:25:13;6.27;;;4.10;;
19816;SDS011;68323;49.394;8.434;2023-04-29T13:27:41;6.63;;;4.40;;
19816;SDS011;68323;49.394;8.434;2023-04-29T13:30:08;6.23;;;5.07;;
19816;SDS011;68323;49.394;8.434;2023-04-29T13:32:34;5.97;;;5.00;;
19816;SDS011;68323;49.394;8.434;2023-04-29T13:35:05;5.50;;;4.80;;
19816;SDS011;68323;49.394;8.434;2023-04-29T13:37:31;4.40;;;3.80;;
19816;SDS011;68323;49.394;8.434;2023-04-29T13:39:58;6.63;;;4.33;;
19816;SDS011;68323;49.394;8.434;2023-04-29T13:42:34;5.17;;;4.20;;
19816;SDS011;68323;49.394;8.434;2023-04-29T13:45:00;5.97;;;4.20;;
19816;SDS011;68323;49.394;8.434;2023-04-29T13:47:27;5.23;;;4.17;;
19816;SDS011;68323;49.394;8.434;2023-04-29T13:49:53;5.03;;;4.03;;
19816;SDS011;68323;49.394;8.434;2023-04-29T13:52:18;5.83;;;4.50;;
19816;SDS011;68323;49.394;8.434;2023-04-29T13:54:44;4.40;;;4.00;;
19816;SDS011;68323;49.394;8.434;2023-04-29T13:57:10;4.60;;;3.83;;
19816;SDS011;68323;49.394;8.434;2023-04-29T13:59:35;4.30;;;3.90;;
19816;SDS011;68323;49.394;8.434;2023-04-29T14:02:01;5.17;;;4.10;;
19816;SDS011;68323;49.394;8.434;2023-04-29T14:04:27;5.53;;;4.63;;
19816;SDS011;68323;49.394;8.434;2023-04-29T14:06:54;5.93;;;4.60;;
19816;SDS011;68323;49.394;8.434;2023-04-29T14:09:20;4.80;;;4.20;;
19816;SDS011;68323;49.394;8.434;2023-04-29T14:11:46;5.57;;;4.70;;
19816;SDS011;68323;49.394;8.434;2023-04-29T14:14:13;4.90;;;4.40;;
19816;SDS011;68323;49.394;8.434;2023-04-29T14:16:38;5.57;;;4.20;;
19816;SDS011;68323;49.394;8.434;2023-04-29T14:19:04;5.10;;;4.43;;
19816;SDS011;68323;49.394;8.434;2023-04-29T14:21:30;5.03;;;4.40;;
19816;SDS011;68323;49.394;8.434;2023-04-29T14:23:57;6.23;;;5.10;;
19816;SDS011;68323;49.394;8.434;2023-04-29T14:26:23;6.47;;;5.03;;
19816;SDS011;68323;49.394;8.434;2023-04-29T14:28:49;7.30;;;4.60;;
19816;SDS011;68323;49.394;8.434;2023-04-29T14:31:22;5.87;;;4.93;;
19816;SDS011;68323;49.394;8.434;2023-04-29T14:33:54;5.83;;;4.83;;
19816;SDS011;68323;49.394;8.434;2023-04-29T14:36:20;8.27;;;5.60;;
19816;SDS011;68323;49.394;8.434;2023-04-29T14:38:46;5.70;;;5.10;;
19816;SDS011;68323;49.394;8.434;2023-04-29T14:41:12;6.23;;;5.30;;
19816;SDS011;68323;49.394;8.434;2023-04-29T14:43:37;6.13;;;5.47;;
19816;SDS011;68323;49.394;8.434;2023-04-29T14:46:03;6.53;;;5.70;;
19816;SDS011;68323;49.394;8.434;2023-04-29T14:48:29;7.27;;;5.97;;
19816;SDS011;68323;49.394;8.434;2023-04-29T14:50:55;9.97;;;5.70;;
19816;SDS011;68323;49.394;8.434;2023-04-29T14:53:20;8.03;;;5.13;;
19816;SDS011;68323;49.394;8.434;2023-04-29T14:55:47;5.23;;;4.70;;
19816;SDS011;68323;49.394;8.434;2023-04-29T14:58:13;7.97;;;4.87;;
19816;SDS011;68323;49.394;8.434;2023-04-29T15:00:39;5.60;;;4.97;;
19816;SDS011;68323;49.394;8.434;2023-04-29T15:03:05;7.17;;;5.10;;
19816;SDS011;68323;49.394;8.434;2023-04-29T15:05:30;6.10;;;5.17;;
19816;SDS011;68323;49.394;8.434;2023-04-29T15:07:56;5.70;;;5.03;;
19816;SDS011;68323;49.394;8.434;2023-04-29T15:10:26;12.57;;;6.33;;
19816;SDS011;68323;49.394;8.434;2023-04-29T15:12:52;6.43;;;5.27;;
19816;SDS011;68323;49.394;8.434;2023-04-29T15:15:18;5.60;;;5.00;;
19816;SDS011;68323;49.394;8.434;2023-04-29T15:17:44;5.60;;;4.83;;
19816;SDS011;68323;49.394;8.434;2023-04-29T15:20:11;7.53;;;4.97;;
19816;SDS011;68323;49.394;8.434;2023-04-29T15:22:37;6.43;;;5.30;;